createdAt,value
2022-12-17T00:00:02.010Z,-0.80
2022-12-17T00:01:02.154Z,-0.72
2022-12-17T00:02:01.998Z,-0.72
2022-12-17T00:03:02.171Z,-0.72
2022-12-17T00:04:02.160Z,-0.77
2022-12-17T00:05:01.939Z,-0.70
2022-12-17T00:06:01.936Z,-0.75
2022-12-17T00:07:01.988Z,-0.75
2022-12-17T00:08:01.899Z,-0.78
2022-12-17T00:09:01.906Z,-0.70
2022-12-17T00:10:01.882Z,-0.75
2022-12-17T00:11:01.893Z,-0.69
2022-12-17T00:12:01.876Z,-0.80
2022-12-17T00:13:01.858Z,-0.78
2022-12-17T00:14:01.865Z,-0.77
2022-12-17T00:15:01.828Z,-0.83
2022-12-17T00:16:01.879Z,-0.84
2022-12-17T00:17:01.802Z,-0.65
2022-12-17T00:18:01.814Z,-0.68
2022-12-17T00:19:01.814Z,-0.81
2022-12-17T00:20:01.787Z,-0.73
2022-12-17T00:21:01.780Z,-0.75
2022-12-17T00:22:01.747Z,-0.75
2022-12-17T00:23:01.768Z,-0.81
2022-12-17T00:24:01.741Z,-0.81
2022-12-17T00:25:01.742Z,-0.77
2022-12-17T00:26:01.708Z,-0.92
2022-12-17T00:27:01.703Z,-0.83
2022-12-17T00:28:01.685Z,-0.83
2022-12-17T00:29:01.682Z,-0.75
2022-12-17T00:30:01.693Z,-0.80
2022-12-17T00:31:01.708Z,-0.86
2022-12-17T00:32:01.660Z,-0.89
2022-12-17T00:33:01.641Z,-0.77
2022-12-17T00:34:01.628Z,-0.81
2022-12-17T00:35:01.606Z,-0.80
2022-12-17T00:36:01.626Z,-0.81
2022-12-17T00:37:01.580Z,-0.86
2022-12-17T00:38:01.572Z,-0.83
2022-12-17T00:39:01.590Z,-0.87
2022-12-17T00:40:01.550Z,-0.81
2022-12-17T00:41:01.552Z,-0.89
2022-12-17T00:42:01.540Z,-0.83
2022-12-17T00:43:01.527Z,-0.84
2022-12-17T00:44:01.525Z,-0.83
2022-12-17T00:45:01.502Z,-0.81
2022-12-17T00:46:01.499Z,-0.81
2022-12-17T00:47:01.560Z,-0.86
2022-12-17T00:48:01.460Z,-0.87
2022-12-17T00:49:01.460Z,-0.87
2022-12-17T00:50:01.443Z,-0.94
2022-12-17T00:51:01.425Z,-0.91
2022-12-17T00:52:01.429Z,-0.80
2022-12-17T00:53:01.404Z,-0.87
2022-12-17T00:54:01.410Z,-0.86
2022-12-17T00:55:01.432Z,-0.87
2022-12-17T00:56:01.385Z,-0.84
2022-12-17T00:57:01.369Z,-0.81
2022-12-17T00:58:01.365Z,-0.89
2022-12-17T00:59:01.334Z,-0.94
2022-12-17T01:00:01.350Z,-0.84
2022-12-17T01:01:01.374Z,-0.89
2022-12-17T01:02:01.461Z,-0.89
2022-12-17T01:03:01.343Z,-0.87
2022-12-17T01:04:01.299Z,-0.86
2022-12-17T01:05:01.267Z,-0.91
2022-12-17T01:06:01.287Z,-0.83
2022-12-17T01:07:01.304Z,-0.94
2022-12-17T01:08:01.236Z,-0.89
2022-12-17T01:09:01.227Z,-0.92
2022-12-17T01:10:01.231Z,-0.91
2022-12-17T01:11:01.221Z,-0.95
2022-12-17T01:12:01.206Z,-0.84
2022-12-17T01:13:01.208Z,-0.94
2022-12-17T01:14:01.187Z,-0.89
2022-12-17T01:15:01.171Z,-0.86
2022-12-17T01:16:01.257Z,-0.87
2022-12-17T01:17:01.136Z,-0.89
2022-12-17T01:18:01.129Z,-0.86
2022-12-17T01:19:01.140Z,-0.94
2022-12-17T01:20:01.112Z,-0.87
2022-12-17T01:21:01.089Z,-0.92
2022-12-17T01:22:01.099Z,-0.94
2022-12-17T01:23:01.076Z,-0.81
2022-12-17T01:24:01.087Z,-0.87
2022-12-17T01:25:01.049Z,-0.84
2022-12-17T01:26:01.054Z,-0.95
2022-12-17T01:27:01.048Z,-0.86
2022-12-17T01:28:01.031Z,-0.95
2022-12-17T01:29:01.033Z,-0.86
2022-12-17T01:30:01.012Z,-0.87
2022-12-17T01:31:00.995Z,-1.00
2022-12-17T01:32:01.016Z,-0.97
2022-12-17T01:33:00.969Z,-1.00
2022-12-17T01:34:00.950Z,-1.00
2022-12-17T01:35:00.948Z,-0.99
2022-12-17T01:36:00.941Z,-1.00
2022-12-17T01:37:00.912Z,-0.99
2022-12-17T01:38:00.924Z,-0.95
2022-12-17T01:39:00.907Z,-0.89
2022-12-17T01:40:00.901Z,-1.05
2022-12-17T01:41:00.882Z,-1.06
2022-12-17T01:42:00.881Z,-0.99
2022-12-17T01:43:00.880Z,-1.00
2022-12-17T01:44:00.852Z,-1.02
2022-12-17T01:45:00.844Z,-1.07
2022-12-17T01:46:00.921Z,-1.03
2022-12-17T01:47:00.817Z,-0.99
2022-12-17T01:48:00.792Z,-0.95
2022-12-17T01:49:00.783Z,-1.02
2022-12-17T01:50:00.785Z,-0.94
2022-12-17T01:51:00.797Z,-1.02
2022-12-17T01:52:00.763Z,-1.02
2022-12-17T01:53:00.735Z,-1.02
2022-12-17T08:43:32.172Z,-3.17
2022-12-17T08:44:06.674Z,-3.25
2022-12-17T08:45:06.654Z,-3.13
2022-12-17T08:46:06.791Z,-3.13
2022-12-17T08:47:06.660Z,-3.23
2022-12-17T08:48:06.623Z,-3.25
2022-12-17T08:49:06.615Z,-3.20
2022-12-17T08:50:06.605Z,-3.17
2022-12-17T08:51:06.582Z,-3.20
2022-12-17T08:52:06.598Z,-3.20
2022-12-17T08:53:06.559Z,-3.18
2022-12-17T08:54:06.544Z,-3.14
2022-12-17T08:55:06.538Z,-3.08
2022-12-17T08:56:06.521Z,-3.25
2022-12-17T08:57:06.519Z,-3.20
2022-12-17T08:58:06.530Z,-3.10
2022-12-17T08:59:06.529Z,-3.26
2022-12-17T09:00:06.493Z,-3.22
2022-12-17T09:01:06.526Z,-3.23
2022-12-17T09:02:06.756Z,-3.28
2022-12-17T09:03:06.545Z,-3.25
2022-12-17T09:04:06.475Z,-3.18
2022-12-17T09:05:06.426Z,-3.15
2022-12-17T09:06:06.425Z,-3.13
2022-12-17T09:07:06.421Z,-3.20
2022-12-17T09:08:06.408Z,-3.18
2022-12-17T09:09:06.404Z,-3.28
2022-12-17T09:10:06.371Z,-3.22
2022-12-17T09:11:06.376Z,-3.18
2022-12-17T09:12:06.348Z,-3.15
2022-12-17T09:13:06.351Z,-3.20
2022-12-17T09:14:06.325Z,-3.20
2022-12-17T09:15:06.486Z,-3.28
2022-12-17T09:16:06.309Z,-3.20
2022-12-17T09:17:06.474Z,-3.28
2022-12-17T09:18:06.296Z,-3.14
2022-12-17T09:19:06.304Z,-3.08
2022-12-17T09:20:06.277Z,-3.18
2022-12-17T09:21:06.249Z,-3.18
2022-12-17T09:22:06.239Z,-3.22
2022-12-17T09:23:06.251Z,-3.14
2022-12-17T09:24:06.215Z,-3.25
2022-12-17T09:25:06.235Z,-3.20
2022-12-17T09:26:06.194Z,-3.17
2022-12-17T09:27:06.188Z,-3.20
2022-12-17T09:28:06.174Z,-3.26
2022-12-17T09:29:06.215Z,-3.18
2022-12-17T09:30:06.204Z,-3.23
2022-12-17T09:31:06.209Z,-3.23
2022-12-17T09:32:06.139Z,-3.23
2022-12-17T09:33:06.135Z,-3.29
2022-12-17T09:34:06.105Z,-3.31
2022-12-17T09:35:06.146Z,-3.32
2022-12-17T09:36:06.095Z,-3.28
2022-12-17T09:37:06.075Z,-3.31
2022-12-17T09:38:06.075Z,-3.26
2022-12-17T09:39:06.115Z,-3.25
2022-12-17T09:40:06.044Z,-3.22
2022-12-17T09:41:06.060Z,-3.26
2022-12-17T09:42:06.036Z,-3.33
2022-12-17T09:43:06.006Z,-3.46
2022-12-17T09:44:05.993Z,-3.36
2022-12-17T09:45:05.998Z,-3.43
2022-12-17T09:46:06.065Z,-3.43
2022-12-17T09:47:06.050Z,-3.47
2022-12-17T09:48:05.947Z,-3.44
2022-12-17T09:49:05.957Z,-3.35
2022-12-17T09:50:05.927Z,-3.36
2022-12-17T09:51:05.944Z,-3.38
2022-12-17T09:52:05.918Z,-3.28
2022-12-17T09:53:05.916Z,-3.26
2022-12-17T09:54:05.893Z,-3.26
2022-12-17T09:55:05.888Z,-3.33
2022-12-17T09:56:05.873Z,-3.31
2022-12-17T09:57:05.878Z,-3.32
2022-12-17T09:58:05.836Z,-3.28
2022-12-17T09:59:05.847Z,-3.33
2022-12-17T10:00:05.817Z,-3.35
2022-12-17T10:01:05.849Z,-3.31
2022-12-17T10:02:06.107Z,-3.29
2022-12-17T10:03:05.940Z,-3.23
2022-12-17T10:04:05.776Z,-3.28
2022-12-17T10:05:05.776Z,-3.25
2022-12-17T10:06:05.756Z,-3.29
2022-12-17T10:07:05.755Z,-3.33
2022-12-17T10:08:05.757Z,-3.18
2022-12-17T10:09:05.723Z,-3.22
2022-12-17T10:10:05.721Z,-3.22
2022-12-17T10:11:05.720Z,-3.20
2022-12-17T10:12:05.680Z,-3.22
2022-12-17T10:13:05.688Z,-3.15
2022-12-17T10:14:05.685Z,-3.17
2022-12-17T10:15:05.675Z,-3.14
2022-12-17T10:16:05.713Z,-3.13
2022-12-17T10:17:11.372Z,-3.11
2022-12-17T10:18:06.612Z,-3.11
2022-12-17T10:19:05.655Z,-3.15
2022-12-17T10:20:05.605Z,-3.18
2022-12-17T10:21:05.587Z,-3.17
2022-12-17T10:22:05.589Z,-3.15
2022-12-17T10:23:05.578Z,-3.17
2022-12-17T10:24:05.545Z,-3.13
2022-12-17T10:25:05.557Z,-3.18
2022-12-17T10:26:05.523Z,-3.18
2022-12-17T10:27:05.533Z,-3.20
2022-12-17T10:28:05.502Z,-3.15
2022-12-17T10:29:05.515Z,-3.11
2022-12-17T10:30:05.477Z,-3.18
2022-12-17T10:31:05.585Z,-3.20
2022-12-17T10:32:05.482Z,-3.13
2022-12-17T10:33:05.465Z,-3.18
2022-12-17T10:34:05.448Z,-3.15
2022-12-17T10:35:05.949Z,-3.08
2022-12-17T10:36:05.420Z,-3.04
2022-12-17T10:37:05.424Z,-3.18
2022-12-17T10:38:05.401Z,-3.05
2022-12-17T10:39:05.394Z,-3.00
2022-12-17T10:40:05.380Z,-3.07
2022-12-17T10:41:05.375Z,-3.00
2022-12-17T10:42:05.344Z,-3.05
2022-12-17T10:43:05.351Z,-3.00
2022-12-17T10:44:05.324Z,-2.93
2022-12-17T10:45:05.319Z,-2.94
2022-12-17T10:46:05.387Z,-2.82
2022-12-17T10:47:05.298Z,-2.93
2022-12-17T10:48:05.301Z,-3.00
2022-12-17T10:49:11.027Z,-2.93
2022-12-17T10:50:06.268Z,-2.76
2022-12-17T10:51:05.282Z,-2.72
2022-12-17T10:52:05.252Z,-2.60
2022-12-17T10:53:05.241Z,-2.57
2022-12-17T10:54:05.271Z,-2.56
2022-12-17T10:55:05.217Z,-2.58
2022-12-17T10:56:05.203Z,-2.66
2022-12-17T10:57:05.190Z,-2.47
2022-12-17T10:58:05.166Z,-2.64
2022-12-17T10:59:05.177Z,-2.58
2022-12-17T11:00:05.143Z,-2.43
2022-12-17T11:01:05.137Z,-2.53
2022-12-17T11:02:05.235Z,-2.35
2022-12-17T11:03:05.277Z,-2.51
2022-12-17T11:04:05.111Z,-2.43
2022-12-17T11:05:05.119Z,-2.38
2022-12-17T11:06:05.077Z,-2.36
2022-12-17T11:07:05.093Z,-2.29
2022-12-17T11:08:05.072Z,-2.20
2022-12-17T11:09:05.064Z,-2.16
2022-12-17T11:10:09.139Z,-2.23
2022-12-17T11:11:05.035Z,-2.21
2022-12-17T11:12:07.490Z,-2.16
2022-12-17T11:13:05.062Z,-2.16
2022-12-17T11:14:04.999Z,-2.24
2022-12-17T11:15:05.008Z,-2.18
2022-12-17T11:16:05.038Z,-2.14
2022-12-17T11:17:04.957Z,-2.17
2022-12-17T11:18:10.944Z,-2.14
2022-12-17T11:19:05.935Z,-2.11
2022-12-17T11:20:04.944Z,-2.16
2022-12-17T11:21:04.930Z,-2.05
2022-12-17T11:22:04.894Z,-2.08
2022-12-17T11:23:04.924Z,-2.23
2022-12-17T11:24:04.874Z,-2.03
2022-12-17T11:25:04.882Z,-2.08
2022-12-17T11:26:04.880Z,-2.06
2022-12-17T11:27:04.850Z,-1.88
2022-12-17T11:28:04.826Z,-1.81
2022-12-17T11:29:04.866Z,-1.75
2022-12-17T11:30:04.806Z,-1.62
2022-12-17T11:31:04.912Z,-1.64
2022-12-17T11:32:04.797Z,-1.56
2022-12-17T11:33:04.792Z,-1.39
2022-12-17T11:34:04.773Z,-1.21
2022-12-17T11:35:04.768Z,-1.12
2022-12-17T11:36:04.737Z,-1.00
2022-12-17T11:37:04.770Z,-0.84
2022-12-17T11:38:04.713Z,-0.60
2022-12-17T11:39:04.739Z,-0.41
2022-12-17T11:40:04.693Z,-0.42
2022-12-17T11:41:04.695Z,-0.24
2022-12-17T11:42:10.847Z,-0.24
2022-12-17T11:43:05.677Z,-0.13
2022-12-17T11:44:04.662Z,-0.06
2022-12-17T11:45:04.654Z,-0.12
2022-12-17T11:46:04.693Z,-0.16
2022-12-17T11:47:04.651Z,-0.06
2022-12-17T11:48:04.623Z,-0.05
2022-12-17T11:49:04.614Z,0.07
2022-12-17T11:50:04.579Z,0.20
2022-12-17T11:51:04.574Z,0.33
2022-12-17T11:52:04.559Z,0.45
2022-12-17T11:53:04.852Z,0.57
2022-12-17T11:54:04.548Z,0.62
2022-12-17T11:55:04.552Z,0.68
2022-12-17T11:56:04.527Z,0.76
2022-12-17T11:57:04.509Z,0.71
2022-12-17T11:58:04.530Z,0.83
2022-12-17T11:59:04.503Z,0.82
2022-12-17T12:00:04.850Z,0.86
2022-12-17T12:01:04.474Z,1.10
2022-12-17T12:02:04.451Z,1.06
2022-12-17T12:03:04.535Z,0.89
2022-12-17T12:04:04.511Z,0.86
2022-12-17T12:05:04.430Z,0.79
2022-12-17T12:06:04.416Z,0.76
2022-12-17T12:07:04.407Z,0.86
2022-12-17T12:08:04.394Z,0.92
2022-12-17T12:09:04.386Z,0.97
2022-12-17T12:10:04.388Z,0.94
2022-12-17T12:11:04.372Z,1.00
2022-12-17T12:12:04.337Z,1.03
2022-12-17T12:13:04.326Z,1.22
2022-12-17T12:14:04.309Z,0.97
2022-12-17T12:15:04.322Z,0.78
2022-12-17T12:16:04.313Z,0.78
2022-12-17T12:17:04.286Z,0.88
2022-12-17T12:18:04.266Z,1.00
2022-12-17T12:19:04.259Z,1.08
2022-12-17T12:20:04.257Z,1.29
2022-12-17T12:21:04.263Z,1.40
2022-12-17T12:22:04.235Z,1.36
2022-12-17T12:23:04.251Z,1.57
2022-12-17T12:24:04.201Z,1.80
2022-12-17T12:25:04.211Z,1.82
2022-12-17T12:26:04.219Z,1.83
2022-12-17T12:27:04.204Z,1.83
2022-12-17T12:28:04.156Z,1.75
2022-12-17T12:29:04.161Z,1.73
2022-12-17T12:30:04.134Z,1.73
2022-12-17T12:31:04.171Z,1.64
2022-12-17T12:32:04.218Z,1.76
2022-12-17T12:33:09.658Z,1.87
2022-12-17T12:34:05.098Z,1.97
2022-12-17T12:35:04.090Z,1.97
2022-12-17T12:36:04.081Z,1.91
2022-12-17T12:37:04.074Z,2.12
2022-12-17T12:38:04.067Z,2.28
2022-12-17T12:39:04.045Z,2.33
2022-12-17T12:40:04.030Z,2.45
2022-12-17T12:41:04.012Z,2.56
2022-12-17T12:42:04.015Z,2.64
2022-12-17T12:43:04.072Z,2.44
2022-12-17T12:44:03.987Z,2.30
2022-12-17T12:45:03.983Z,2.34
2022-12-17T12:46:04.098Z,2.46
2022-12-17T12:47:03.963Z,2.48
2022-12-17T12:48:03.926Z,2.55
2022-12-17T12:49:03.937Z,2.26
2022-12-17T12:50:03.907Z,2.55
2022-12-17T12:51:03.911Z,2.79
2022-12-17T12:52:03.881Z,2.55
2022-12-17T12:53:03.892Z,2.13
2022-12-17T12:54:03.880Z,2.19
2022-12-17T12:55:03.861Z,2.17
2022-12-17T12:56:03.844Z,2.12
2022-12-17T12:57:03.838Z,1.94
2022-12-17T12:58:03.856Z,2.19
2022-12-17T12:59:03.844Z,2.31
2022-12-17T13:00:03.810Z,2.20
2022-12-17T13:01:03.863Z,2.22
2022-12-17T13:02:04.008Z,2.22
2022-12-17T13:03:03.896Z,2.19
2022-12-17T13:04:03.779Z,2.12
2022-12-17T13:05:03.753Z,2.09
2022-12-17T13:06:03.742Z,2.10
2022-12-17T13:07:03.716Z,1.85
2022-12-17T13:08:03.707Z,1.76
2022-12-17T13:09:03.745Z,1.97
2022-12-17T13:10:03.686Z,2.06
2022-12-17T13:11:03.673Z,2.17
2022-12-17T13:12:03.676Z,2.22
2022-12-17T13:13:03.646Z,2.13
2022-12-17T13:14:03.657Z,2.13
2022-12-17T13:15:03.658Z,2.13
2022-12-17T13:16:03.671Z,2.13
2022-12-17T13:17:03.617Z,2.04
2022-12-17T13:18:03.610Z,2.10
2022-12-17T13:19:03.592Z,2.26
2022-12-17T13:20:03.585Z,2.20
2022-12-17T13:21:03.559Z,2.09
2022-12-17T13:22:03.563Z,2.10
2022-12-17T13:23:03.547Z,2.28
2022-12-17T13:24:03.546Z,2.19
2022-12-17T13:25:03.527Z,1.93
2022-12-17T13:26:03.505Z,1.69
2022-12-17T13:27:03.502Z,1.57
2022-12-17T13:28:03.483Z,1.25
2022-12-17T13:29:03.528Z,1.12
2022-12-17T13:30:03.463Z,1.03
2022-12-17T13:31:03.467Z,1.19
2022-12-17T13:32:03.482Z,1.26
2022-12-17T13:33:03.433Z,1.37
2022-12-17T13:34:03.426Z,1.47
2022-12-17T13:35:09.805Z,1.60
2022-12-17T13:36:04.394Z,1.64
2022-12-17T13:37:03.384Z,1.60
2022-12-17T13:38:03.395Z,1.51
2022-12-17T13:39:03.390Z,1.34
2022-12-17T13:40:03.361Z,1.07
2022-12-17T13:41:09.380Z,1.01
2022-12-17T13:42:04.333Z,0.98
2022-12-17T13:43:03.340Z,0.89
2022-12-17T13:44:03.326Z,0.97
2022-12-17T13:45:03.297Z,0.80
2022-12-17T13:46:03.393Z,0.72
2022-12-17T13:47:03.290Z,0.75
2022-12-17T13:48:03.263Z,0.60
2022-12-17T13:49:03.285Z,0.34
2022-12-17T13:50:32.602Z,0.31
2022-12-17T13:51:04.224Z,0.20
2022-12-17T13:52:07.984Z,-0.04
2022-12-17T13:53:04.210Z,0.00
2022-12-17T13:54:03.203Z,-0.08
2022-12-17T13:55:03.206Z,-0.41
2022-12-17T13:56:03.166Z,-0.36
2022-12-17T13:57:03.151Z,-0.26
2022-12-17T13:58:03.146Z,-0.36
2022-12-17T13:59:08.402Z,-0.36
2022-12-17T14:00:04.153Z,-0.33
2022-12-17T14:01:03.155Z,-0.37
2022-12-17T14:02:03.252Z,-0.54
2022-12-17T14:03:03.187Z,-0.39
2022-12-17T14:04:07.122Z,-0.50
2022-12-17T14:05:07.654Z,-0.60
2022-12-17T14:06:03.056Z,-0.63
2022-12-17T14:07:03.050Z,-0.47
2022-12-17T14:08:03.042Z,-0.54
2022-12-17T14:09:03.018Z,-0.60
2022-12-17T14:10:03.027Z,-0.65
2022-12-17T14:11:06.647Z,-0.75
2022-12-17T14:12:02.994Z,-0.75
2022-12-17T14:13:02.971Z,-0.70
2022-12-17T14:14:02.980Z,-0.66
2022-12-17T14:15:02.955Z,-0.81
2022-12-17T14:16:02.956Z,-0.70
2022-12-17T14:17:02.991Z,-0.69
2022-12-17T14:18:02.920Z,-0.83
2022-12-17T14:19:02.947Z,-0.78
2022-12-17T14:20:02.909Z,-0.86
2022-12-17T14:21:02.893Z,-0.94
2022-12-17T14:22:02.876Z,-0.95
2022-12-17T14:23:02.871Z,-0.87
2022-12-17T14:24:02.851Z,-0.91
2022-12-17T14:25:02.837Z,-0.92
2022-12-17T14:26:02.866Z,-0.94
2022-12-17T14:27:02.831Z,-0.83
2022-12-17T14:28:02.824Z,-0.94
2022-12-17T14:29:02.807Z,-0.89
2022-12-17T14:30:02.786Z,-0.95
2022-12-17T14:31:26.144Z,-0.86
2022-12-17T14:32:03.944Z,-0.91
2022-12-17T14:33:02.747Z,-0.86
2022-12-17T14:34:02.756Z,-0.99
2022-12-17T14:35:02.760Z,-1.00
2022-12-17T14:36:02.754Z,-1.12
2022-12-17T14:37:02.717Z,-1.12
2022-12-17T14:38:02.718Z,-1.06
2022-12-17T14:39:02.684Z,-1.12
2022-12-17T14:40:02.689Z,-1.17
2022-12-17T14:41:02.658Z,-1.05
2022-12-17T14:42:02.782Z,-1.15
2022-12-17T14:43:02.638Z,-1.23
2022-12-17T14:44:02.736Z,-1.07
2022-12-17T14:45:02.614Z,-1.15
2022-12-17T14:46:02.695Z,-1.20
2022-12-17T14:47:02.604Z,-1.18
2022-12-17T14:48:02.598Z,-1.15
2022-12-17T14:49:02.640Z,-1.21
2022-12-17T14:50:02.585Z,-1.20
2022-12-17T14:51:02.585Z,-1.23
2022-12-17T14:52:02.570Z,-1.28
2022-12-17T14:53:02.538Z,-1.25
2022-12-17T14:54:02.529Z,-1.21
2022-12-17T14:55:02.515Z,-1.33
2022-12-17T14:56:02.511Z,-1.25
2022-12-17T14:57:02.499Z,-1.27
2022-12-17T14:58:02.485Z,-1.25
2022-12-17T14:59:02.488Z,-1.25
2022-12-17T15:00:02.527Z,-1.17
2022-12-17T15:01:02.521Z,-1.25
2022-12-17T15:02:02.689Z,-1.18
2022-12-17T15:03:02.759Z,-1.24
2022-12-17T15:04:02.488Z,-1.27
2022-12-17T15:05:02.402Z,-1.41
2022-12-17T15:06:02.418Z,-1.24
2022-12-17T15:07:02.514Z,-1.31
2022-12-17T15:08:02.373Z,-1.27
2022-12-17T15:09:02.345Z,-1.31
2022-12-17T15:10:02.402Z,-1.27
2022-12-17T15:11:02.337Z,-1.36
2022-12-17T15:12:02.318Z,-1.48
2022-12-17T15:13:02.328Z,-1.45
2022-12-17T15:14:02.307Z,-1.46
2022-12-17T15:15:02.277Z,-1.53
2022-12-17T15:16:02.270Z,-1.41
2022-12-17T15:17:02.389Z,-1.54
2022-12-17T15:18:02.279Z,-1.51
2022-12-17T15:19:02.233Z,-1.51
2022-12-17T15:20:02.237Z,-1.63
2022-12-17T15:21:02.222Z,-1.46
2022-12-17T15:22:02.205Z,-1.62
2022-12-17T15:23:02.235Z,-1.59
2022-12-17T15:24:02.206Z,-1.63
2022-12-17T15:25:02.167Z,-1.56
2022-12-17T15:26:02.173Z,-1.67
2022-12-17T15:27:02.143Z,-1.69
2022-12-17T15:28:02.135Z,-1.64
2022-12-17T15:29:02.174Z,-1.75
2022-12-17T15:30:02.119Z,-1.81
2022-12-17T15:31:02.257Z,-1.75
2022-12-17T15:32:02.102Z,-1.87
2022-12-17T15:33:02.092Z,-1.84
2022-12-17T15:34:02.084Z,-1.81
2022-12-17T15:35:02.084Z,-1.80
2022-12-17T15:36:02.047Z,-1.85
2022-12-17T15:37:02.031Z,-1.88
2022-12-17T15:38:02.035Z,-1.88
2022-12-17T15:39:02.036Z,-1.84
2022-12-17T15:40:02.026Z,-1.99
2022-12-17T15:41:02.008Z,-1.96
2022-12-17T15:42:01.995Z,-2.02
2022-12-17T15:43:06.190Z,-2.06
2022-12-17T15:44:01.960Z,-2.05
2022-12-17T15:45:01.965Z,-2.00
2022-12-17T15:46:02.033Z,-2.14
2022-12-17T15:47:01.924Z,-2.11
2022-12-17T15:48:01.912Z,-1.99
2022-12-17T15:49:01.912Z,-2.10
2022-12-17T15:50:01.918Z,-2.08
2022-12-17T15:51:01.884Z,-2.11
2022-12-17T15:52:01.869Z,-2.11
2022-12-17T15:53:01.873Z,-2.13
2022-12-17T15:54:01.875Z,-2.16
2022-12-17T15:55:01.883Z,-2.16
2022-12-17T15:56:01.838Z,-2.17
2022-12-17T15:57:01.810Z,-2.18
2022-12-17T15:58:01.811Z,-2.23
2022-12-17T15:59:01.791Z,-2.26
2022-12-17T16:00:01.823Z,-2.20
2022-12-17T16:01:01.809Z,-2.17
2022-12-17T16:02:01.914Z,-2.24
2022-12-17T16:03:01.897Z,-2.32
2022-12-17T16:04:01.737Z,-2.21
2022-12-17T16:05:01.749Z,-2.32
2022-12-17T16:06:01.731Z,-2.21
2022-12-17T16:07:01.712Z,-2.40
2022-12-17T16:08:01.703Z,-2.35
2022-12-17T16:09:01.676Z,-2.35
2022-12-17T16:10:05.178Z,-2.23
2022-12-17T16:11:01.675Z,-2.32
2022-12-17T16:12:01.648Z,-2.39
2022-12-17T16:13:01.653Z,-2.39
2022-12-17T16:14:01.640Z,-2.33
2022-12-17T16:15:01.641Z,-2.33
2022-12-17T16:16:04.089Z,-2.39
2022-12-17T16:17:01.604Z,-2.40
2022-12-17T16:18:01.580Z,-2.38
2022-12-17T16:19:01.580Z,-2.40
2022-12-17T16:20:01.603Z,-2.33
2022-12-17T16:21:01.545Z,-2.36
2022-12-17T16:22:01.555Z,-2.40
2022-12-17T16:23:01.527Z,-2.43
2022-12-17T16:24:01.526Z,-2.47
2022-12-17T16:25:01.510Z,-2.45
2022-12-17T16:26:01.516Z,-2.47
2022-12-17T16:27:04.670Z,-2.48
2022-12-17T16:28:01.484Z,-2.61
2022-12-17T16:29:01.466Z,-2.54
2022-12-17T16:30:01.450Z,-2.51
2022-12-17T16:31:01.603Z,-2.58
2022-12-17T16:32:01.426Z,-2.60
2022-12-17T16:33:01.407Z,-2.56
2022-12-17T16:34:01.402Z,-2.53
2022-12-17T16:35:01.404Z,-2.53
2022-12-17T16:36:01.381Z,-2.48
2022-12-17T16:37:01.383Z,-2.56
2022-12-17T16:38:01.365Z,-2.68
2022-12-17T16:39:01.344Z,-2.58
2022-12-17T16:40:01.349Z,-2.63
2022-12-17T16:41:01.322Z,-2.68
2022-12-17T16:42:01.322Z,-2.69
2022-12-17T16:43:01.336Z,-2.61
2022-12-17T16:44:01.288Z,-2.61
2022-12-17T16:45:01.286Z,-2.64
2022-12-17T16:46:01.461Z,-2.68
2022-12-17T16:47:01.342Z,-2.68
2022-12-17T16:48:01.244Z,-2.72
2022-12-17T16:49:01.235Z,-2.78
2022-12-17T16:50:01.220Z,-2.74
2022-12-17T16:51:01.225Z,-2.75
2022-12-17T16:52:01.216Z,-2.72
2022-12-17T16:53:01.206Z,-2.68
2022-12-17T16:54:01.270Z,-2.81
2022-12-17T16:55:01.177Z,-2.78
2022-12-17T16:56:01.152Z,-2.78
2022-12-17T16:57:01.141Z,-2.75
2022-12-17T16:58:01.136Z,-2.81
2022-12-17T16:59:01.169Z,-2.79
2022-12-17T17:00:01.127Z,-2.89
2022-12-17T17:01:01.094Z,-2.93
2022-12-17T17:02:01.257Z,-2.87
2022-12-17T17:03:01.294Z,-2.86
2022-12-17T17:04:01.198Z,-2.99
2022-12-17T17:05:01.074Z,-2.99
2022-12-17T17:06:01.044Z,-2.94
2022-12-17T17:07:01.030Z,-2.96
2022-12-17T17:08:01.020Z,-2.97
2022-12-17T17:09:01.007Z,-2.94
2022-12-17T17:10:01.032Z,-3.00
2022-12-17T17:11:01.001Z,-3.00
2022-12-17T17:12:00.970Z,-2.97
2022-12-17T17:13:00.978Z,-3.00
2022-12-17T17:14:00.950Z,-3.05
2022-12-17T17:15:00.991Z,-2.99
2022-12-17T17:16:00.975Z,-3.02
2022-12-17T17:17:00.940Z,-3.08
2022-12-17T17:18:01.961Z,-3.08
2022-12-17T17:19:00.911Z,-3.08
2022-12-17T17:20:00.882Z,-2.97
2022-12-17T17:21:00.900Z,-3.00
2022-12-17T17:22:00.875Z,-3.08
2022-12-17T17:23:00.880Z,-3.05
2022-12-17T17:24:00.852Z,-3.10
2022-12-17T17:25:00.832Z,-3.08
2022-12-17T17:26:00.838Z,-3.08
2022-12-17T17:27:00.832Z,-3.08
2022-12-17T17:28:00.794Z,-3.08
2022-12-17T17:29:00.805Z,-3.14
2022-12-17T17:30:03.668Z,-3.15
2022-12-17T17:31:00.870Z,-3.15
2022-12-17T17:32:10.562Z,-3.17
2022-12-17T17:33:01.749Z,-3.20
2022-12-17T17:34:00.741Z,-3.25
2022-12-17T17:35:00.738Z,-3.08
2022-12-17T17:36:03.963Z,-3.11
2022-12-17T17:37:00.711Z,-3.23
2022-12-17T17:38:00.699Z,-3.22
2022-12-17T17:39:00.681Z,-3.26
2022-12-17T17:40:00.677Z,-3.23
2022-12-17T17:41:00.682Z,-3.17
2022-12-17T17:42:00.651Z,-3.26
2022-12-17T17:43:00.635Z,-3.26
2022-12-17T17:44:00.636Z,-3.22
2022-12-17T17:45:00.629Z,-3.18
2022-12-17T17:46:00.626Z,-3.29
2022-12-17T17:47:00.748Z,-3.20
2022-12-17T17:48:00.570Z,-3.28
2022-12-17T17:49:00.579Z,-3.35
2022-12-17T17:50:00.563Z,-3.23
2022-12-17T17:51:00.569Z,-3.39
2022-12-17T17:52:09.343Z,-3.25
2022-12-17T17:53:01.531Z,-3.33
2022-12-17T17:54:00.524Z,-3.39
2022-12-17T17:55:00.501Z,-3.25
2022-12-17T17:56:00.524Z,-3.25
2022-12-17T17:57:00.485Z,-3.25
2022-12-17T17:58:00.461Z,-3.36
2022-12-17T17:59:00.471Z,-3.35
2022-12-17T18:00:00.448Z,-3.26
2022-12-17T18:01:00.445Z,-3.39
2022-12-17T18:02:00.787Z,-3.31
2022-12-17T18:03:00.629Z,-3.31
2022-12-17T18:04:00.452Z,-3.28
2022-12-17T18:05:00.398Z,-3.36
2022-12-17T18:06:00.369Z,-3.28
2022-12-17T18:08:01.359Z,-3.46
2022-12-17T18:09:00.362Z,-3.44
2022-12-17T18:10:00.342Z,-3.31
2022-12-17T18:11:00.319Z,-3.43
2022-12-17T18:12:00.346Z,-3.49
2022-12-17T18:13:00.297Z,-3.47
2022-12-17T18:14:00.312Z,-3.46
2022-12-17T18:15:17.720Z,-3.44
2022-12-17T18:16:01.312Z,-3.44
2022-12-17T18:17:00.261Z,-3.51
2022-12-17T18:18:00.257Z,-3.49
2022-12-17T18:19:00.267Z,-3.51
2022-12-17T18:20:00.278Z,-3.39
2022-12-17T18:21:00.210Z,-3.51
2022-12-17T18:22:00.205Z,-3.53
2022-12-17T18:23:00.197Z,-3.51
2022-12-17T18:24:00.181Z,-3.61
2022-12-17T18:25:00.181Z,-3.51
2022-12-17T18:26:00.163Z,-3.47
2022-12-17T18:27:00.153Z,-3.56
2022-12-17T18:28:00.152Z,-3.62
2022-12-17T18:29:00.133Z,-3.53
2022-12-17T18:30:00.138Z,-3.64
2022-12-17T18:31:00.187Z,-3.56
2022-12-17T18:32:00.157Z,-3.54
2022-12-17T18:33:00.076Z,-3.61
2022-12-17T18:34:00.235Z,-3.56
2022-12-17T18:35:00.222Z,-3.61
2022-12-17T18:36:00.034Z,-3.60
2022-12-17T18:37:00.040Z,-3.53
2022-12-17T18:38:00.011Z,-3.47
2022-12-17T18:39:00.029Z,-3.50
2022-12-17T18:40:00.001Z,-3.56
2022-12-17T18:40:59.994Z,-3.61
2022-12-17T18:41:59.980Z,-3.51
2022-12-17T18:42:59.971Z,-3.51
2022-12-17T18:43:59.986Z,-3.50
2022-12-17T18:45:00.016Z,-3.54
2022-12-17T18:45:59.933Z,-3.53
2022-12-17T18:47:00.025Z,-3.60
2022-12-17T18:47:59.904Z,-3.60
2022-12-17T18:48:59.911Z,-3.68
2022-12-17T18:49:59.931Z,-3.60
2022-12-17T18:51:02.878Z,-3.61
2022-12-17T18:51:59.865Z,-3.56
2022-12-17T18:52:59.843Z,-3.60
2022-12-17T18:53:59.847Z,-3.64
2022-12-17T18:54:59.832Z,-3.64
2022-12-17T18:55:59.818Z,-3.68
2022-12-17T18:57:01.384Z,-3.60
2022-12-17T18:57:59.820Z,-3.71
2022-12-17T18:58:59.784Z,-3.61
2022-12-17T18:59:59.778Z,-3.62
2022-12-17T19:00:59.812Z,-3.67
2022-12-17T19:01:59.923Z,-3.75
2022-12-17T19:02:59.964Z,-3.78
2022-12-17T19:03:59.718Z,-3.83
2022-12-17T19:04:59.723Z,-3.68
2022-12-17T19:05:59.695Z,-3.76
2022-12-17T19:06:59.708Z,-3.75
2022-12-17T19:07:59.685Z,-3.70
2022-12-17T19:08:59.668Z,-3.80
2022-12-17T19:09:59.707Z,-3.83
2022-12-17T19:10:59.640Z,-3.76
2022-12-17T19:11:59.641Z,-3.75
2022-12-17T19:12:59.620Z,-3.75
2022-12-17T19:13:59.618Z,-3.75
2022-12-17T19:14:59.597Z,-3.81
2022-12-17T19:15:59.620Z,-3.93
2022-12-17T19:16:59.592Z,-3.89
2022-12-17T19:17:59.565Z,-3.93
2022-12-17T19:18:59.553Z,-3.89
2022-12-17T19:19:59.564Z,-3.87
2022-12-17T19:20:59.531Z,-3.99
2022-12-17T19:21:59.516Z,-3.96
2022-12-17T19:22:59.556Z,-3.93
2022-12-17T19:23:59.616Z,-4.04
2022-12-17T19:24:59.530Z,-4.07
2022-12-17T19:25:59.483Z,-4.11
2022-12-17T19:26:59.463Z,-4.07
2022-12-17T19:27:59.448Z,-4.07
2022-12-17T19:29:00.453Z,-4.20
2022-12-17T19:29:59.438Z,-4.05
2022-12-17T19:30:59.421Z,-4.14
2022-12-17T19:31:59.476Z,-4.20
2022-12-17T19:32:59.396Z,-4.09
2022-12-17T19:33:59.400Z,-4.19
2022-12-17T19:34:59.402Z,-4.12
2022-12-17T19:35:59.357Z,-4.08
2022-12-17T19:36:59.365Z,-3.99
2022-12-17T19:37:59.335Z,-3.99
2022-12-17T19:38:59.359Z,-3.98
2022-12-17T19:39:59.326Z,-4.04
2022-12-17T19:40:59.305Z,-3.89
2022-12-17T19:41:59.304Z,-3.96
2022-12-17T19:42:59.303Z,-3.93
2022-12-17T19:43:59.284Z,-3.89
2022-12-17T19:45:00.277Z,-3.96
2022-12-17T19:45:59.326Z,-3.96